< < Back
Terminal Aerodrome Forecast


Current Version              Previous Versions:   1  2  3  4  5  6  7  8  9  

Terminal Aerodrome Forecast

985
FTUS42 KJAX 251720
TAFJAX
TAF
KJAX 251720Z 2518/2618 12010G15KT P6SM FEW050 SCT250
     FM260100 14002KT P6SM FEW250
     FM261500 09010G15KT P6SM SCT040=

Latest METAR

879
SAUS80 KWBC 252000
MTRJAX
METAR KJAX 251956Z 14011KT 10SM FEW040 SCT080 SCT200 29/13 A3020 RMK AO2
SLP227 T02940128


USA.gov is the U.S. government's official web portal to all federal, state and local government web resources and services.